Accueil
METAR-TAF:

METAR-TAF

Aéroports :

Naltchik, Russie

latitude: 43-30-46N, longitude: 043-38-12E, altitude: 445 m

Observation

Le bulletin a été fait il y a 41 minutes, à 19:00 UTC
Vent 4 kt de ouest/sud-ouest
Température 17°C
Humidité 82%
Pression 1017 hPa
Visibilité 10 km ou plus
Ciel couvert à une hauteur de 3800 ft

METAR: URMN 271900Z 24002MPS 9999 OVC038 17/14 Q1017 R24/////// NOSIG RMK QFE726

Heure: 23:41 (19:41 UTC)

Prévision

Le bulletin a été fait il y a 2 heures et 41 minutes, à 17:00 UTC
Prévision valable du 27 à 18 UTC au 28 à 03 UTC
Vent 6 kt de sud-ouest avec des rafales jusqu'à 16 kt
Visibilité 10 km ou plus
Nuages fragmentés à une hauteur de 2000 ft

TAF: URMN 271700Z 2718/2803 22003G08MPS 9999 BKN020

Observations et prévisions météorologiques de plus de 4000 aéroports (messages METAR et TAF).

Les stations disponibles sont représentées par des disques jaunes et rouges sur la carte.

Passer la souris dessus pour voir le nom de la station.

Cliquer dessus pour voir les observations et prévisions météorologiques.

Pour changer de carte: cliquez sur les boutons verts avec une croix noire pour zoomer, sur le bouton vert avec un tiret pour effectuer un zoom arrière, ou sur les flèches vertes pour les cartes adjacentes.


METAR-TAF: